Lake Fork, Idaho
Current Conditions -  °F | °C
As of 5:51 PM on Wednesday 17 Dec 2014 (Local Time) from KMYL Reporting Station
Overcast Overcast  
Wind Chill: 32°   Ceiling: 5500
Heat Index: 32°   Visibility: 10mi
Dew Point: 29°   Wind: 0mph
Humidity: 88%   Direction: NA
Pressure: 29.93"   Gusts: NA
Location:  44.83°N, 116.09°W
Report Text: KMYL 180051Z AUTO 00000KT 10SM BKN055 OVC070 00/M02 A2993 RMK AO2 SLP161 T00001017
Loading
Personal Weather Stations






























Interactive Weather Map New forecast layout! Learn more

10-Day Weather Forecast

Advertisements
Track Severe Weather on mobile